Latest Weather Observations for Walungurru (Kintore)

IDD60801

Issued at 9:21 am CST Wednesday 24 July 2024 (issued every 10 minutes, with the page automatically refreshed every 10 minutes)

About weather observations | Map of weather stations | Latest weather observations for NT | Other Formats
Station Details ID: 015664 Name: WALUNGURRU AIRPORT Lat: -23.27 Lon: 129.38 Height: 454.3 m
Data from the previous 72 hours. | See also: Recent months at Walungurru (Kintore)
Date/Time
CST
Temp
°C
App
Temp
°C
Dew
Point
°C
Rel
Hum
%
Delta-T
°C
Wind Press
QNH
hPa
Press
MSL
hPa
Rain since
9am
mm
Dir  Spd
km/h
Gust
km/h
Spd
kts
Gust
kts
24/09:00am 14.5 11.1 -0.8 35 6.5 NE 7 11 4 6 1017.0 1015.8 0.0
24/08:30am 12.8 9.6 -0.8 39 5.7 E 6 7 3 4 1017.1 1015.9 0.0
24/08:00am 8.0 4.5 -1.0 53 3.6 E 7 7 4 4 1016.9 1015.7 0.0
24/07:30am 7.7 3.8 -1.3 53 3.5 ENE 9 13 5 7 1016.8 1015.6 0.0
24/07:00am 6.5 3.8 -2.1 54 3.3 NNE 2 7 1 4 1016.7 1015.5 0.0
24/06:30am 10.0 6.4 -2.0 43 4.7 N 7 9 4 5 1016.4 1015.2 0.0
24/06:00am 10.8 6.5 -1.9 41 5.1 NE 11 13 6 7 1015.8 1014.7 0.0
24/05:30am 11.4 6.6 -2.4 38 5.5 ENE 13 15 7 8 1015.5 1014.4 0.0
24/05:00am 11.6 6.5 -2.2 38 5.5 ENE 15 15 8 8 1015.5 1014.4 0.0
24/04:30am 12.1 7.0 -2.1 37 5.7 ENE 15 19 8 10 1015.4 1014.3 0.0
24/04:00am 8.3 3.9 -2.3 47 4.1 ENE 11 13 6 7 1015.6 1014.5 0.0
24/03:30am 8.6 4.2 -2.3 46 4.2 SE 11 13 6 7 1015.8 1014.7 0.0
24/03:00am 9.4 5.0 -2.2 44 4.5 ENE 11 15 6 8 1015.8 1014.7 0.0
24/02:30am 8.5 4.4 -2.7 45 4.3 E 9 9 5 5 1016.1 1015.0 0.0
24/02:00am 10.6 6.2 -2.4 40 5.1 ENE 11 13 6 7 1016.4 1015.2 0.0
24/01:30am 8.3 3.6 -2.0 48 4.0 ENE 13 15 7 8 1016.6 1015.4 0.0
24/01:00am 8.5 6.3 -1.9 48 4.0 CALM 0 0 0 0 1016.9 1015.7 0.0
24/12:30am 9.0 6.2 -2.9 43 4.5 ESE 2 7 1 4 1017.1 1015.9 0.0
24/12:00am 10.8 6.7 -2.9 38 5.3 ESE 9 11 5 6 1017.2 1016.0 0.0
 
Date/Time
CST
Temp
°C
App
Temp
°C
Dew
Point
°C
Rel
Hum
%
Delta-T
°C
Wind Press
QNH
hPa
Press
MSL
hPa
Rain since
9am
mm
Dir  Spd
km/h
Gust
km/h
Spd
kts
Gust
kts
23/11:30pm 10.7 6.6 -3.0 38 5.3 ESE 9 11 5 6 1017.4 1016.3 0.0
23/11:00pm 10.8 7.1 -2.6 39 5.3 ESE 7 9 4 5 1017.5 1016.4 0.0
23/10:30pm 11.4 7.8 -2.4 38 5.5 ENE 7 9 4 5 1017.4 1016.3 0.0
23/10:00pm 11.9 8.8 -2.3 37 5.7 E 4 9 2 5 1017.6 1016.5 0.0
23/09:30pm 12.9 9.4 -2.6 34 6.2 S 6 7 3 4 1017.9 1016.8 0.0
23/09:00pm 13.2 8.8 -2.7 33 6.4 SW 11 13 6 7 1017.9 1016.8 0.0
23/08:30pm 14.4 10.7 -2.9 30 7.0 NNE 7 7 4 4 1017.6 1016.5 0.0
23/08:00pm 15.6 11.2 -2.8 28 7.6 NNE 11 13 6 7 1017.4 1016.3 0.0
23/07:30pm 16.2 12.1 -3.3 26 8.0 NNE 9 11 5 6 1017.3 1016.2 0.0
23/07:00pm 17.8 13.3 -3.6 23 8.8 N 11 11 6 6 1017.2 1016.0 0.0
23/06:30pm 20.2 15.3 -3.4 20 10.0 N 13 15 7 8 1017.1 1015.9 0.0
23/06:00pm 22.2 16.0 -4.8 16 11.3 NNW 19 24 10 13 1016.9 1015.7 0.0
23/05:30pm 23.0 16.8 -5.0 15 11.8 NNW 19 26 10 14 1016.7 1015.5 0.0
23/05:00pm 23.4 17.0 -4.7 15 12.0 N 20 30 11 16 1016.6 1015.4 0.0
23/04:30pm 23.4 16.3 -4.7 15 11.9 N 24 30 13 16 1016.9 1015.7 0.0
23/04:00pm 23.9 17.2 -4.3 15 12.1 N 22 32 12 17 1017.1 1015.9 0.0
23/03:30pm 24.0 17.7 -4.2 15 12.2 N 20 30 11 16 1017.3 1016.2 0.0
23/03:00pm 23.8 17.7 -3.5 16 11.9 N 19 32 10 17 1017.6 1016.5 0.0
23/02:30pm 23.8 17.8 -1.9 18 11.5 N 20 28 11 15 1018.3 1017.2 0.0
23/02:00pm 23.3 17.1 -3.1 17 11.6 N 20 28 11 15 1019.1 1017.9 0.0
23/01:30pm 22.8 16.6 -3.5 17 11.4 N 20 33 11 18 1019.9 1018.8 0.0
23/01:00pm 22.2 15.3 -2.5 19 10.8 N 24 33 13 18 1020.7 1019.6 0.0
23/12:30pm 21.9 15.9 -1.4 21 10.4 N 20 30 11 16 1021.6 1020.5 0.0
23/12:00pm 20.5 13.7 -1.9 22 9.8 N 24 33 13 18 1022.3 1021.2 0.0
23/11:30am 20.2 13.8 -1.6 23 9.5 NNE 22 30 12 16 1022.7 1021.6 0.0
23/11:00am 19.0 11.9 -1.4 25 8.9 NNE 26 33 14 18 1023.1 1022.1 0.0
23/10:30am 18.1 11.4 -1.2 27 8.4 NNE 24 32 13 17 1023.4 1022.3 0.0
23/10:00am 16.4 9.6 -2.1 28 7.8 NE 24 33 13 18 1023.4 1022.3 0.0
23/09:30am 14.1 7.6 -2.3 32 6.7 NE 22 32 12 17 1023.0 1022.0 0.0
23/09:00am 12.9 6.7 -3.0 33 6.3 ENE 20 28 11 15 1022.8 1021.7 0.0
23/08:30am 11.3 5.0 -3.6 35 5.7 ENE 20 26 11 14 1022.6 1021.5 0.0
23/08:00am 10.4 4.1 -4.0 36 5.4 ENE 20 28 11 15 1022.6 1021.5 0.0
23/07:30am 10.1 3.7 -4.6 35 5.4 ENE 20 26 11 14 1022.5 1021.4 0.0
23/07:00am 10.4 4.0 -5.2 33 5.7 ENE 20 26 11 14 1022.3 1021.2 0.0
23/06:30am 11.2 4.9 -5.7 30 6.2 ENE 19 26 10 14 1022.2 1021.1 0.0
23/06:00am 11.1 5.1 -6.2 29 6.2 ENE 17 22 9 12 1022.0 1020.9 0.0
23/05:30am 11.4 5.0 -6.4 28 6.4 ENE 19 24 10 13 1021.8 1020.7 0.0
23/05:00am 11.2 4.3 -6.2 29 6.3 ENE 22 30 12 16 1021.7 1020.6 0.0
23/04:30am 12.3 6.3 -7.1 25 7.0 ENE 17 20 9 11 1021.5 1020.4 0.0
23/04:00am 13.0 7.0 -7.1 24 7.3 ENE 17 20 9 11 1021.5 1020.4 0.0
23/03:30am 13.3 7.6 -7.4 23 7.5 ENE 15 19 8 10 1021.6 1020.5 0.0
23/03:00am 13.7 7.6 -7.6 22 7.7 ENE 17 20 9 11 1021.8 1020.7 0.0
23/02:30am 13.6 7.9 -7.7 22 7.7 ENE 15 19 8 10 1022.0 1020.9 0.0
23/02:00am 13.6 7.9 -7.7 22 7.7 ENE 15 17 8 9 1022.2 1021.1 0.0
23/01:30am 14.1 8.7 -7.9 21 7.9 ENE 13 17 7 9 1022.5 1021.4 0.0
23/01:00am 14.3 9.0 -7.7 21 8.0 ENE 13 17 7 9 1022.5 1021.4 0.0
23/12:30am 14.8 9.1 -7.9 20 8.2 E 15 19 8 10 1022.6 1021.5 0.0
23/12:00am 14.7 9.0 -8.0 20 8.2 E 15 17 8 9 1022.7 1021.6 0.0
 
Date/Time
CST
Temp
°C
App
Temp
°C
Dew
Point
°C
Rel
Hum
%
Delta-T
°C
Wind Press
QNH
hPa
Press
MSL
hPa
Rain since
9am
mm
Dir  Spd
km/h
Gust
km/h
Spd
kts
Gust
kts
22/11:30pm 15.1 9.4 -7.7 20 8.3 E 15 19 8 10 1022.7 1021.6 0.0
22/11:00pm 15.4 9.6 -8.1 19 8.6 E 15 19 8 10 1022.8 1021.7 0.0
22/10:30pm 15.2 9.4 -8.2 19 8.5 E 15 17 8 9 1022.9 1021.8 0.0
22/10:00pm 15.3 9.5 -8.8 18 8.7 E 15 17 8 9 1022.9 1021.8 0.0
22/09:30pm 14.6 8.8 -8.7 19 8.3 E 15 17 8 9 1022.9 1021.8 0.0
22/09:00pm 13.6 8.2 -8.9 20 7.9 E 13 13 7 7 1022.9 1021.8 0.0
22/08:30pm 14.0 8.6 -8.6 20 8.0 E 13 13 7 7 1022.7 1021.6 0.0
22/08:00pm 14.6 9.2 -8.7 19 8.3 ENE 13 15 7 8 1022.3 1021.2 0.0
22/07:30pm 15.4 10.0 -8.8 18 8.7 ENE 13 13 7 7 1022.1 1021.0 0.0
22/07:00pm 16.6 10.7 -9.3 16 9.4 E 15 15 8 8 1021.5 1020.4 0.0
22/06:30pm 19.6 14.1 -9.5 13 10.8 ENE 13 17 7 9 1021.5 1020.4 0.0
22/06:00pm 21.7 15.4 -10.0 11 11.9 ENE 17 20 9 11 1021.5 1020.4 0.0
22/05:30pm 22.4 15.7 -8.4 12 12.0 ENE 20 28 11 15 1021.4 1020.3 0.0
22/05:00pm 22.7 16.2 -8.1 12 12.2 ENE 19 30 10 16 1021.2 1020.1 0.0
22/04:30pm 23.1 16.4 -7.8 12 12.3 NE 20 30 11 16 1020.9 1019.8 0.0
22/04:00pm 22.9 15.8 -8.0 12 12.3 ENE 22 33 12 18 1021.4 1020.3 0.0
22/03:30pm 23.0 16.0 -6.9 13 12.1 ENE 22 30 12 16 1021.7 1020.6 0.0
22/03:00pm 22.7 16.2 -6.1 14 11.8 ENE 20 30 11 16 1022.1 1021.0 0.0
22/02:30pm 22.4 16.5 -5.5 15 11.5 E 17 30 9 16 1022.5 1021.4 0.0
22/02:00pm 21.7 16.2 -5.2 16 11.2 ESE 15 24 8 13 1023.1 1022.1 0.0
22/01:30pm 21.8 17.2 -4.3 17 11.0 NE 11 20 6 11 1024.1 1023.0 0.0
22/01:00pm 20.9 15.5 -4.3 18 10.6 NE 15 20 8 11 1024.8 1023.7 0.0
22/12:30pm 20.7 15.8 -3.7 19 10.3 ENE 13 20 7 11 1025.4 1024.4 0.0
22/12:00pm 19.8 14.1 -3.8 20 9.8 NE 17 22 9 12 1026.0 1024.9 0.0
22/11:30am 19.2 13.1 -2.4 23 9.2 ENE 20 24 11 13 1026.3 1025.2 0.0
22/11:00am 18.2 11.4 -2.1 25 8.7 NE 24 28 13 15 1026.5 1025.4 0.0
22/10:30am 17.4 10.5 -2.3 26 8.3 ENE 24 32 13 17 1026.7 1025.6 0.0
22/10:00am 16.2 9.0 -1.8 29 7.6 ENE 26 33 14 18 1026.6 1025.5 0.0
22/09:30am 14.6 7.8 -1.9 32 6.8 ENE 24 30 13 16 1026.5 1025.4 0.0
22/09:00am 13.1 6.2 -2.4 34 6.2 ENE 24 32 13 17 1026.2 1025.1 0.0
22/08:30am 12.0 5.1 -3.0 35 5.9 ENE 24 35 13 19 1026.0 1024.9 0.0
22/08:00am 11.5 4.1 -3.4 35 5.8 ENE 26 33 14 18 1025.7 1024.6 0.0
22/07:30am 11.3 3.5 -4.0 34 5.8 ENE 28 35 15 19 1025.2 1024.2 0.0
22/07:00am 12.1 4.3 -4.1 32 6.2 ENE 28 37 15 20 1025.0 1024.0 0.0
22/06:30am 13.0 5.9 -4.6 29 6.7 E 24 32 13 17 1024.8 1023.7 0.0
22/06:00am 13.1 5.9 -5.4 27 6.9 ENE 24 32 13 17 1024.6 1023.5 0.0
22/05:30am 13.4 6.2 -5.7 26 7.1 ENE 24 32 13 17 1024.4 1023.3 0.0
22/05:00am 14.1 7.8 -6.1 24 7.6 E 19 28 10 15 1024.3 1023.2 0.0
22/04:30am 10.9 6.7 -4.3 34 5.7 SSE 9 13 5 7 1024.4 1023.3 0.0
22/04:00am 11.9 7.0 -3.8 33 6.1 S 13 20 7 11 1024.3 1023.2 0.0
22/03:30am 15.5 10.2 -7.3 20 8.4 ESE 13 20 7 11 1024.1 1023.0 0.0
22/03:00am 13.8 8.1 -3.9 29 6.9 SSE 17 24 9 13 1024.2 1023.1 0.0
22/02:30am 13.2 7.7 -2.3 34 6.2 SSE 17 22 9 12 1024.2 1023.1 0.0
22/02:00am 14.9 8.0 -2.5 30 7.1 SE 24 33 13 18 1024.1 1023.0 0.0
22/01:30am 14.0 8.5 -2.0 33 6.5 SSE 17 22 9 12 1024.3 1023.2 0.0
22/01:00am 13.9 8.5 -1.7 34 6.5 SSE 17 22 9 12 1024.3 1023.2 0.0
22/12:30am 16.1 10.1 -1.9 29 7.5 SE 20 26 11 14 1024.4 1023.3 0.0
22/12:00am 14.5 9.5 -1.2 34 6.6 SSE 15 20 8 11 1024.7 1023.6 0.0
 
Date/Time
CST
Temp
°C
App
Temp
°C
Dew
Point
°C
Rel
Hum
%
Delta-T
°C
Wind Press
QNH
hPa
Press
MSL
hPa
Rain since
9am
mm
Dir  Spd
km/h
Gust
km/h
Spd
kts
Gust
kts
21/11:30pm 16.3 10.5 -1.3 30 7.5 SE 19 26 10 14 1024.8 1023.7 0.0
21/11:00pm 16.6 11.2 -1.0 30 7.6 SE 17 24 9 13 1024.9 1023.8 0.0
21/10:30pm 16.4 10.8 0.1 33 7.1 SE 19 28 10 15 1024.8 1023.7 0.0
21/10:00pm 17.3 11.5 0.0 31 7.7 SE 20 30 11 16 1024.6 1023.5 0.0
21/09:30pm 17.9 12.4 0.6 31 7.8 SE 19 26 10 14 1024.6 1023.5 0.0
21/09:00pm 16.2 11.9 0.7 35 6.9 SSE 13 17 7 9 1024.5 1023.4 0.0
21/08:30pm 18.1 13.8 1.2 32 7.7 SE 13 17 7 9 1024.3 1023.2 0.0
21/08:00pm 17.9 13.6 1.0 32 7.7 SE 13 15 7 8 1023.9 1022.8 0.0
21/07:30pm 16.5 12.7 1.8 37 6.7 SE 11 13 6 7 1023.5 1022.4 0.0
21/07:00pm 18.3 14.8 1.3 32 7.8 SE 9 11 5 6 1022.9 1021.8 0.0
21/06:30pm 20.1 16.6 1.5 29 8.6 ESE 9 11 5 6 1022.6 1021.5 0.0
21/06:00pm 21.8 18.7 1.5 26 9.6 SE 7 11 4 6 1022.3 1021.2 0.0
21/05:30pm 22.3 18.0 1.3 25 9.9 E 13 17 7 9 1022.3 1021.2 0.0
21/05:00pm 22.9 19.9 1.9 25 10.1 S 7 13 4 7 1022.2 1021.1 0.0
21/04:30pm 23.2 20.3 1.5 24 10.3 WSW 6 15 3 8 1022.2 1021.1 0.0
21/04:00pm 23.0 19.2 1.9 25 10.1 ESE 11 20 6 11 1022.2 1021.1 0.0
21/03:30pm 23.1 19.6 1.5 24 10.3 NNW 9 13 5 7 1022.3 1021.2 0.0
21/03:00pm 22.9 19.5 1.9 25 10.0 NNE 9 15 5 8 1022.5 1021.4 0.0
21/02:30pm 22.8 19.3 1.2 24 10.2 SE 9 15 5 8 1022.8 1021.7 0.0
21/02:00pm 22.9 19.4 1.3 24 10.3 NE 9 15 5 8 1023.2 1022.2 0.0
21/01:30pm 21.6 17.3 0.8 25 9.6 ENE 13 24 7 13 1023.8 1022.7 0.0
21/01:00pm 21.2 16.4 0.4 25 9.6 NE 15 28 8 15 1024.3 1023.2 0.0
21/12:30pm 20.6 15.4 -0.1 25 9.4 ENE 17 20 9 11 1025.0 1024.0 0.0
21/12:00pm 19.8 14.2 -0.2 26 9.0 ENE 19 28 10 15 1025.4 1024.4 0.0
21/11:30am 19.1 13.5 -0.3 27 8.6 ENE 19 32 10 17 1026.0 1024.9 0.0
21/11:00am 18.1 12.2 -0.7 28 8.3 ENE 20 26 11 14 1026.3 1025.2 0.0
21/10:30am 17.1 10.4 -1.1 29 7.8 ENE 24 32 13 17 1026.4 1025.3 0.0
21/10:00am 16.0 8.5 -1.1 31 7.3 ENE 28 35 15 19 1026.2 1025.1 0.0
21/09:30am 14.4 6.5 -1.2 34 6.5 ENE 30 39 16 21 1026.0 1024.9 0.0

Other formats

Comma delimited format used in spreadsheet applications
http://www.bom.gov.au/fwo/IDD60801/IDD60801.94321.axf

JavaScript Object Notation format (JSON) in row-major order
http://www.bom.gov.au/fwo/IDD60801/IDD60801.94321.json

Data quality

Most of these data are generated automatically and are frequently updated. Quality checks on data are not normally performed. It is possible for incorrect values to appear. Refer to information at About Latest Weather Observations and please check the disclaimer before using these data.